createdAt,value
2018-05-16T00:01:44.951Z,95036.12
2018-05-16T00:04:12.993Z,95040.97
2018-05-16T00:06:41.329Z,95048.83
2018-05-16T00:09:09.443Z,95039.61
2018-05-16T00:11:37.463Z,95029.81
2018-05-16T00:14:05.449Z,95029.48
2018-05-16T00:16:33.362Z,95042.70
2018-05-16T00:19:01.406Z,95050.32
2018-05-16T00:21:29.405Z,95045.53
2018-05-16T00:23:57.647Z,94932.84
2018-05-16T00:26:25.704Z,95036.52
2018-05-16T00:28:54.266Z,95033.47
2018-05-16T00:31:22.957Z,95043.60
2018-05-16T00:33:51.478Z,95044.84
2018-05-16T00:36:20.034Z,95041.45
2018-05-16T00:38:48.010Z,95029.30
2018-05-16T00:41:16.000Z,95018.97
2018-05-16T00:43:43.960Z,95022.63
2018-05-16T00:46:12.007Z,95023.50
2018-05-16T00:48:40.522Z,95025.88
2018-05-16T00:51:20.997Z,95022.83
2018-05-16T00:53:49.610Z,95022.39
2018-05-16T00:56:17.903Z,95020.83
2018-05-16T00:58:46.280Z,95018.13
2018-05-16T01:01:14.806Z,95017.08
2018-05-16T01:03:43.050Z,95027.77
2018-05-16T01:06:11.015Z,95024.91
2018-05-16T01:08:39.381Z,95023.55
2018-05-16T01:11:07.968Z,95037.42
2018-05-16T01:13:36.753Z,95039.86
2018-05-16T01:16:05.424Z,95032.98
2018-05-16T01:18:33.623Z,95039.63
2018-05-16T01:21:02.080Z,95034.23
2018-05-16T01:23:30.421Z,95020.91
2018-05-16T01:25:59.092Z,95025.53
2018-05-16T01:28:27.689Z,95028.85
2018-05-16T01:30:56.098Z,95018.40
2018-05-16T01:33:24.442Z,95022.69
2018-05-16T01:35:52.869Z,95025.38
2018-05-16T01:38:21.560Z,95004.79
2018-05-16T01:40:50.194Z,95024.07
2018-05-16T01:43:18.709Z,95018.13
2018-05-16T01:45:47.598Z,95007.31
2018-05-16T01:48:15.973Z,95008.34
2018-05-16T01:50:45.038Z,95007.24
2018-05-16T01:53:13.799Z,95009.42
2018-05-16T01:55:42.449Z,95009.03
2018-05-16T01:58:11.445Z,95012.47
2018-05-16T02:00:40.015Z,95008.64
2018-05-16T02:03:08.232Z,95004.10
2018-05-16T02:05:36.488Z,95002.41
2018-05-16T02:08:04.519Z,95006.02
2018-05-16T02:10:32.912Z,95018.84
2018-05-16T02:13:00.950Z,95024.63
2018-05-16T02:15:29.639Z,95026.44
2018-05-16T02:17:57.972Z,95020.76
2018-05-16T02:20:25.956Z,95016.34
2018-05-16T02:22:53.915Z,95005.07
2018-05-16T02:25:21.903Z,95011.92
2018-05-16T02:27:49.957Z,95011.58
2018-05-16T02:30:18.496Z,95014.94
2018-05-16T02:32:46.695Z,95000.34
2018-05-16T02:35:15.260Z,95005.00
2018-05-16T02:37:43.561Z,95003.52
2018-05-16T02:40:12.130Z,95003.52
2018-05-16T02:42:40.422Z,95006.84
2018-05-16T02:45:09.094Z,95012.85
2018-05-16T02:47:37.588Z,95010.08
2018-05-16T02:50:06.248Z,95011.71
2018-05-16T02:52:34.636Z,95018.31
2018-05-16T02:55:03.135Z,95013.90
2018-05-16T02:57:31.511Z,95013.77
2018-05-16T03:00:00.078Z,95016.20
2018-05-16T03:02:28.438Z,94995.04
2018-05-16T03:04:56.953Z,95012.69
2018-05-16T03:07:25.615Z,95014.80
2018-05-16T03:09:53.998Z,95011.70
2018-05-16T03:12:22.487Z,95016.23
2018-05-16T03:14:50.837Z,95029.70
2018-05-16T03:17:18.839Z,95018.98
2018-05-16T03:19:46.831Z,95027.16
2018-05-16T03:22:15.175Z,95031.64
2018-05-16T03:24:43.450Z,95018.94
2018-05-16T03:27:11.976Z,95023.29
2018-05-16T03:29:40.483Z,95030.41
2018-05-16T03:32:08.810Z,95028.48
2018-05-16T03:34:37.449Z,95026.22
2018-05-16T03:37:05.761Z,95031.89
2018-05-16T03:39:34.005Z,95035.46
2018-05-16T03:42:02.391Z,95046.32
2018-05-16T03:44:30.965Z,95043.15
2018-05-16T03:46:59.368Z,95043.19
2018-05-16T03:49:27.829Z,95028.75
2018-05-16T03:51:56.298Z,95027.97
2018-05-16T03:54:24.493Z,95049.63
2018-05-16T03:56:52.443Z,95053.81
2018-05-16T03:59:32.770Z,95052.11
2018-05-16T04:02:13.493Z,95059.80
2018-05-16T04:04:41.956Z,95056.91
2018-05-16T04:07:10.366Z,95047.78
2018-05-16T04:09:39.551Z,95045.49
2018-05-16T04:12:08.217Z,95060.22
2018-05-16T04:14:36.979Z,95064.49
2018-05-16T04:17:05.523Z,95053.14
2018-05-16T04:19:34.267Z,95056.74
2018-05-16T04:22:02.453Z,95051.41
2018-05-16T04:24:30.713Z,95047.97
2018-05-16T04:26:59.120Z,95049.63
2018-05-16T04:29:27.321Z,95053.16
2018-05-16T04:31:55.842Z,95058.47
2018-05-16T04:34:24.336Z,95061.09
2018-05-16T04:36:53.025Z,95059.02
2018-05-16T04:39:21.509Z,95055.31
2018-05-16T04:41:50.253Z,95057.48
2018-05-16T04:44:19.006Z,95067.41
2018-05-16T04:46:47.471Z,95058.09
2018-05-16T04:49:15.727Z,95059.50
2018-05-16T04:51:44.036Z,95064.43
2018-05-16T04:54:12.313Z,95068.47
2018-05-16T04:56:40.708Z,95069.49
2018-05-16T04:59:09.397Z,95072.51
2018-05-16T05:01:37.919Z,95075.21
2018-05-16T05:04:06.132Z,95073.41
2018-05-16T05:06:34.287Z,95067.95
2018-05-16T05:09:02.303Z,95077.03
2018-05-16T05:11:30.249Z,95076.72
2018-05-16T05:13:58.281Z,95083.66
2018-05-16T05:16:26.470Z,95088.70
2018-05-16T05:18:54.433Z,95089.27
2018-05-16T05:21:22.434Z,95089.53
2018-05-16T05:23:50.494Z,95092.43
2018-05-16T05:26:18.493Z,95090.89
2018-05-16T05:28:46.474Z,95091.91
2018-05-16T05:31:14.467Z,95091.13
2018-05-16T05:33:42.516Z,95092.55
2018-05-16T05:36:10.553Z,95090.28
2018-05-16T05:38:38.539Z,95092.19
2018-05-16T05:41:06.502Z,95091.31
2018-05-16T05:43:34.501Z,95099.70
2018-05-16T05:46:02.481Z,95086.41
2018-05-16T05:48:30.472Z,95100.89
2018-05-16T05:50:58.483Z,95099.70
2018-05-16T05:53:26.487Z,95103.85
2018-05-16T05:55:54.539Z,95101.76
2018-05-16T05:58:22.592Z,95097.48
2018-05-16T06:00:50.591Z,95108.46
2018-05-16T06:03:18.694Z,95114.00
2018-05-16T06:05:46.705Z,95116.13
2018-05-16T06:08:14.697Z,95115.59
2018-05-16T06:10:42.686Z,95105.57
2018-05-16T06:13:10.706Z,95114.82
2018-05-16T06:15:38.683Z,95113.81
2018-05-16T06:18:07.047Z,95112.55
2018-05-16T06:20:35.053Z,95123.66
2018-05-16T06:23:03.114Z,95117.52
2018-05-16T06:25:31.143Z,95108.56
2018-05-16T06:27:59.229Z,95097.72
2018-05-16T06:30:27.238Z,95108.73
2018-05-16T06:32:55.303Z,95122.20
2018-05-16T06:35:23.936Z,95111.88
2018-05-16T06:37:52.055Z,95123.81
2018-05-16T06:40:20.136Z,95131.66
2018-05-16T06:42:48.228Z,95121.89
2018-05-16T06:45:16.305Z,95122.26
2018-05-16T06:47:44.375Z,95117.89
2018-05-16T06:50:12.368Z,95130.53
2018-05-16T06:52:40.412Z,95135.86
2018-05-16T06:55:08.417Z,95142.25
2018-05-16T06:57:36.537Z,95144.33
2018-05-16T07:00:04.578Z,95130.79
2018-05-16T07:02:32.647Z,95127.73
2018-05-16T07:05:00.686Z,95137.04
2018-05-16T07:07:28.727Z,95144.30
2018-05-16T07:09:56.795Z,95149.23
2018-05-16T07:12:24.935Z,95148.27
2018-05-16T07:14:53.012Z,95139.95
2018-05-16T07:17:21.139Z,95160.16
2018-05-16T07:19:50.798Z,95152.50
2018-05-16T07:22:18.976Z,95146.25
2018-05-16T07:24:47.092Z,95150.77
2018-05-16T07:27:15.182Z,95147.17
2018-05-16T07:29:43.254Z,95142.11
2018-05-16T07:32:11.288Z,95146.27
2018-05-16T07:34:39.438Z,95152.31
2018-05-16T07:37:07.461Z,95151.76
2018-05-16T07:39:35.610Z,95156.12
2018-05-16T07:42:03.718Z,95159.56
2018-05-16T07:44:31.782Z,95160.52
2018-05-16T07:46:59.878Z,95162.43
2018-05-16T07:49:27.974Z,95168.06
2018-05-16T07:51:56.041Z,95174.77
2018-05-16T07:54:24.128Z,95170.96
2018-05-16T07:56:52.187Z,95178.41
2018-05-16T07:59:20.258Z,95183.89
2018-05-16T08:01:48.405Z,95177.27
2018-05-16T08:04:16.439Z,95188.86
2018-05-16T08:06:44.505Z,95187.53
2018-05-16T08:09:12.552Z,95190.22
2018-05-16T08:11:40.560Z,95194.70
2018-05-16T08:14:08.673Z,95188.47
2018-05-16T08:16:36.770Z,95196.31
2018-05-16T08:19:04.871Z,95205.33
2018-05-16T08:21:33.353Z,95205.88
2018-05-16T08:24:01.484Z,95208.67
2018-05-16T08:26:29.566Z,95202.22
2018-05-16T08:28:57.612Z,95199.31
2018-05-16T08:31:25.555Z,95195.22
2018-05-16T08:33:53.549Z,95203.14
2018-05-16T08:36:21.591Z,95204.73
2018-05-16T08:38:49.607Z,95201.62
2018-05-16T08:41:17.633Z,95201.45
2018-05-16T08:43:45.710Z,95199.02
2018-05-16T08:46:13.836Z,95199.94
2018-05-16T08:48:42.804Z,95202.62
2018-05-16T08:51:10.880Z,95197.14
2018-05-16T08:53:39.852Z,95206.50
2018-05-16T08:56:08.987Z,95209.41
2018-05-16T08:58:37.093Z,95204.39
2018-05-16T09:01:05.240Z,95202.36
2018-05-16T09:03:33.257Z,95208.27
2018-05-16T09:06:01.212Z,95211.11
2018-05-16T09:08:29.218Z,95218.22
2018-05-16T09:10:57.231Z,95222.36
2018-05-16T09:13:25.170Z,95222.70
2018-05-16T09:15:53.158Z,95223.19
2018-05-16T09:18:21.173Z,95211.58
2018-05-16T09:20:49.206Z,95229.22
2018-05-16T09:23:17.440Z,95223.27
2018-05-16T09:25:45.463Z,95220.98
2018-05-16T09:28:13.463Z,95224.61
2018-05-16T09:30:41.458Z,95218.06
2018-05-16T09:33:09.515Z,95214.19
2018-05-16T09:35:37.478Z,95213.75
2018-05-16T09:38:05.483Z,95219.00
2018-05-16T09:40:33.486Z,95227.11
2018-05-16T09:43:01.522Z,95206.34
2018-05-16T09:45:29.558Z,95220.55
2018-05-16T09:47:57.559Z,95226.50
2018-05-16T09:50:25.503Z,95218.91
2018-05-16T09:52:53.713Z,95225.55
2018-05-16T09:55:21.834Z,95125.19
2018-05-16T09:57:49.890Z,95215.16
2018-05-16T10:00:18.098Z,95213.67
2018-05-16T10:02:46.200Z,95219.69
2018-05-16T10:05:14.234Z,95207.27
2018-05-16T10:07:42.231Z,95204.38
2018-05-16T10:10:10.328Z,95201.84
2018-05-16T10:12:38.392Z,95194.62
2018-05-16T10:15:06.396Z,95198.13
2018-05-16T10:17:34.400Z,95187.44
2018-05-16T10:20:02.547Z,95187.80
2018-05-16T10:22:30.614Z,95196.39
2018-05-16T10:24:58.908Z,95193.09
2018-05-16T10:27:26.926Z,95202.08
2018-05-16T10:29:54.955Z,95197.16
2018-05-16T10:32:22.965Z,95187.70
2018-05-16T10:34:50.969Z,95194.80
2018-05-16T10:37:19.013Z,95194.05
2018-05-16T10:39:47.086Z,95189.17
2018-05-16T10:42:15.071Z,95188.58
2018-05-16T10:44:43.083Z,95189.05
2018-05-16T10:47:11.091Z,95185.67
2018-05-16T10:49:39.178Z,95181.53
2018-05-16T10:52:07.237Z,95172.41
2018-05-16T10:54:35.302Z,95178.08
2018-05-16T10:57:03.370Z,95172.16
2018-05-16T10:59:31.339Z,95185.61
2018-05-16T11:01:59.337Z,95179.88
2018-05-16T11:04:27.371Z,95170.47
2018-05-16T11:06:55.418Z,95165.73
2018-05-16T11:09:23.464Z,95169.64
2018-05-16T11:11:51.381Z,95172.83
2018-05-16T11:14:19.371Z,95161.73
2018-05-16T11:16:47.400Z,95161.19
2018-05-16T11:19:15.322Z,95171.04
2018-05-16T11:21:43.329Z,95170.39
2018-05-16T11:24:12.520Z,95166.66
2018-05-16T11:26:40.785Z,95160.08
2018-05-16T11:29:08.929Z,95162.53
2018-05-16T11:31:36.993Z,95164.00
2018-05-16T11:34:04.998Z,95161.21
2018-05-16T11:36:33.041Z,95158.55
2018-05-16T11:39:00.995Z,95155.92
2018-05-16T11:41:29.030Z,95156.34
2018-05-16T11:43:57.037Z,95148.05
2018-05-16T11:46:25.146Z,95151.98
2018-05-16T11:48:53.245Z,95146.39
2018-05-16T11:51:21.185Z,95144.81
2018-05-16T11:53:49.178Z,95159.28
2018-05-16T11:56:17.238Z,95164.56
2018-05-16T11:58:45.310Z,95159.66
2018-05-16T12:01:13.307Z,95162.81
2018-05-16T12:03:41.307Z,95155.45
2018-05-16T12:06:09.305Z,95163.61
2018-05-16T12:08:37.277Z,95163.84
2018-05-16T12:11:05.268Z,95160.12
2018-05-16T12:13:33.350Z,95162.26
2018-05-16T12:16:01.401Z,95160.52
2018-05-16T12:18:29.435Z,95161.97
2018-05-16T12:20:57.461Z,95166.34
2018-05-16T12:23:25.500Z,95162.58
2018-05-16T12:25:53.622Z,95169.78
2018-05-16T12:28:22.119Z,95158.73
2018-05-16T12:30:50.097Z,95165.22
2018-05-16T12:33:18.168Z,95154.42
2018-05-16T12:35:46.216Z,95160.64
2018-05-16T12:38:14.243Z,95155.05
2018-05-16T12:40:42.220Z,95157.17
2018-05-16T12:43:17.714Z,95154.40
2018-05-16T12:45:45.842Z,95152.20
2018-05-16T12:48:13.883Z,95159.78
2018-05-16T12:50:41.895Z,95156.41
2018-05-16T12:53:09.905Z,95158.70
2018-05-16T12:55:37.979Z,95154.98
2018-05-16T12:58:05.968Z,95160.53
2018-05-16T13:00:33.996Z,95153.97
2018-05-16T13:03:01.985Z,95151.50
2018-05-16T13:05:29.984Z,95156.33
2018-05-16T13:07:58.056Z,95160.47
2018-05-16T13:10:26.205Z,95154.05
2018-05-16T13:12:54.257Z,95166.27
2018-05-16T13:15:22.246Z,95156.45
2018-05-16T13:17:50.376Z,95159.84
2018-05-16T13:20:18.372Z,95151.31
2018-05-16T13:22:46.380Z,95149.62
2018-05-16T13:25:14.494Z,95147.34
2018-05-16T13:27:42.498Z,95150.88
2018-05-16T13:30:10.621Z,95149.36
2018-05-16T13:32:38.697Z,95097.02
2018-05-16T13:35:06.712Z,95147.37
2018-05-16T13:37:34.668Z,95150.04
2018-05-16T13:40:02.663Z,95144.89
2018-05-16T13:42:30.661Z,95155.63
2018-05-16T13:44:58.666Z,95147.77
2018-05-16T13:47:26.719Z,95147.58
2018-05-16T13:49:54.714Z,95141.20
2018-05-16T13:52:22.730Z,95129.69
2018-05-16T13:54:50.742Z,95141.20
2018-05-16T13:57:18.737Z,95137.09
2018-05-16T13:59:46.745Z,95127.45
2018-05-16T14:02:14.781Z,95119.93
2018-05-16T14:04:42.742Z,95126.31
2018-05-16T14:07:10.720Z,95129.52
2018-05-16T14:09:38.686Z,95131.07
2018-05-16T14:12:06.735Z,95125.10
2018-05-16T14:14:34.701Z,95122.70
2018-05-16T14:17:02.733Z,95114.52
2018-05-16T14:19:30.735Z,95119.18
2018-05-16T14:21:58.787Z,95114.71
2018-05-16T14:24:26.882Z,95122.67
2018-05-16T14:26:54.843Z,95120.70
2018-05-16T14:29:22.865Z,95111.33
2018-05-16T14:31:51.309Z,95117.60
2018-05-16T14:34:19.294Z,95117.91
2018-05-16T14:36:47.317Z,95111.59
2018-05-16T14:39:15.362Z,95116.53
2018-05-16T14:41:43.394Z,95097.39
2018-05-16T14:44:11.460Z,95099.64
2018-05-16T14:46:39.481Z,95102.81
2018-05-16T14:49:07.490Z,95091.91
2018-05-16T14:51:35.483Z,95099.31
2018-05-16T14:54:03.566Z,95096.20
2018-05-16T14:56:31.605Z,95099.53
2018-05-16T14:58:59.643Z,95098.32
2018-05-16T15:01:27.671Z,95100.02
2018-05-16T15:03:55.725Z,95091.05
2018-05-16T15:06:23.867Z,95107.44
2018-05-16T15:08:51.839Z,95104.34
2018-05-16T15:11:19.834Z,95103.67
2018-05-16T15:13:47.885Z,95101.07
2018-05-16T15:16:15.959Z,95102.31
2018-05-16T15:18:43.955Z,95104.45
2018-05-16T15:21:12.064Z,95103.50
2018-05-16T15:23:40.065Z,95099.98
2018-05-16T15:26:08.049Z,95097.55
2018-05-16T15:28:36.084Z,95101.17
2018-05-16T15:31:04.011Z,95097.22
2018-05-16T15:33:32.229Z,95093.66
2018-05-16T15:36:00.250Z,95090.82
2018-05-16T15:38:28.283Z,95096.03
2018-05-16T15:40:56.314Z,95096.29
2018-05-16T15:43:24.320Z,95087.52
2018-05-16T15:45:52.291Z,95087.30
2018-05-16T15:48:20.329Z,95088.27
2018-05-16T15:50:48.346Z,95089.63
2018-05-16T15:53:16.396Z,95081.36
2018-05-16T15:55:44.388Z,95076.91
2018-05-16T15:58:12.389Z,95068.02
2018-05-16T16:00:40.356Z,95072.92
2018-05-16T16:03:08.399Z,95078.32
2018-05-16T16:05:36.442Z,95078.63
2018-05-16T16:08:04.532Z,95075.52
2018-05-16T16:10:32.509Z,95078.97
2018-05-16T16:13:00.473Z,95078.28
2018-05-16T16:15:28.582Z,95081.19
2018-05-16T16:17:56.588Z,95075.31
2018-05-16T16:20:24.514Z,95091.02
2018-05-16T16:22:52.469Z,95087.69
2018-05-16T16:25:20.460Z,95091.73
2018-05-16T16:27:48.485Z,95086.98
2018-05-16T16:30:16.477Z,95091.63
2018-05-16T16:32:44.516Z,95090.90
2018-05-16T16:35:12.980Z,95108.27
2018-05-16T16:37:40.978Z,95092.39
2018-05-16T16:40:09.099Z,95089.45
2018-05-16T16:42:37.086Z,95094.09
2018-05-16T16:45:05.150Z,95097.45
2018-05-16T16:47:33.172Z,95101.53
2018-05-16T16:50:01.188Z,95108.19
2018-05-16T16:52:29.232Z,95102.09
2018-05-16T16:54:57.228Z,95112.36
2018-05-16T16:57:25.231Z,95114.23
2018-05-16T16:59:53.228Z,95117.13
2018-05-16T17:02:21.241Z,95116.77
2018-05-16T17:04:49.299Z,95121.68
2018-05-16T17:07:17.531Z,95124.44
2018-05-16T17:09:45.500Z,95126.05
2018-05-16T17:12:13.534Z,95128.30
2018-05-16T17:14:41.599Z,95125.58
2018-05-16T17:17:09.602Z,95126.31
2018-05-16T17:19:37.631Z,95134.56
2018-05-16T17:22:05.603Z,95096.94
2018-05-16T17:24:33.584Z,95128.99
2018-05-16T17:27:01.618Z,95135.48
2018-05-16T17:29:29.619Z,95138.56
2018-05-16T17:31:57.664Z,95133.25
2018-05-16T17:34:25.684Z,95136.64
2018-05-16T17:36:53.684Z,95135.61
2018-05-16T17:39:21.674Z,95131.77
2018-05-16T17:41:50.212Z,95124.52
2018-05-16T17:44:18.219Z,95127.69
2018-05-16T17:46:46.221Z,95127.05
2018-05-16T17:49:14.259Z,95134.38
2018-05-16T17:51:42.280Z,95121.49
2018-05-16T17:54:10.291Z,95107.28
2018-05-16T17:56:38.373Z,95103.14
2018-05-16T17:59:06.378Z,95095.78
2018-05-16T18:01:34.321Z,95100.25
2018-05-16T18:04:02.243Z,95103.13
2018-05-16T18:06:30.261Z,95104.70
2018-05-16T18:08:58.421Z,95104.95
2018-05-16T18:11:26.492Z,95112.36
2018-05-16T18:14:06.387Z,95108.83
2018-05-16T18:16:46.185Z,95108.80
2018-05-16T18:19:14.206Z,95107.65
2018-05-16T18:21:43.175Z,95094.19
2018-05-16T18:24:11.128Z,95096.76
2018-05-16T18:26:39.105Z,95092.67
2018-05-16T18:29:07.113Z,95102.64
2018-05-16T18:31:35.141Z,95111.76
2018-05-16T18:34:03.130Z,95142.52
2018-05-16T18:36:31.217Z,95175.28
2018-05-16T18:38:59.333Z,95168.14
2018-05-16T18:41:27.390Z,95136.70
2018-05-16T18:43:55.450Z,95126.86
2018-05-16T18:46:23.555Z,95137.45
2018-05-16T18:48:51.565Z,95153.01
2018-05-16T18:51:19.607Z,95159.61
2018-05-16T18:53:47.602Z,95163.33
2018-05-16T18:56:15.658Z,95157.56
2018-05-16T18:58:43.698Z,95155.34
2018-05-16T19:01:11.706Z,95158.88
2018-05-16T19:03:39.662Z,95161.63
2018-05-16T19:06:07.658Z,95173.43
2018-05-16T19:08:35.623Z,95222.44
2018-05-16T19:11:03.673Z,95249.15
2018-05-16T19:13:31.698Z,95247.19
2018-05-16T19:15:59.700Z,95255.92
2018-05-16T19:18:27.746Z,95243.09
2018-05-16T19:20:55.800Z,95237.10
2018-05-16T19:23:24.465Z,95228.64
2018-05-16T19:25:52.773Z,95225.42
2018-05-16T19:28:21.071Z,95224.33
2018-05-16T19:30:49.557Z,95214.19
2018-05-16T19:33:17.957Z,95217.84
2018-05-16T19:35:45.961Z,95221.09
2018-05-16T19:38:13.995Z,95224.84
2018-05-16T19:40:42.236Z,95226.19
2018-05-16T19:43:10.190Z,95221.16
2018-05-16T19:45:38.169Z,95226.28
2018-05-16T19:48:06.222Z,95248.79
2018-05-16T19:50:34.207Z,95263.97
2018-05-16T19:53:02.291Z,95254.93
2018-05-16T19:55:30.278Z,95269.13
2018-05-16T19:57:58.297Z,95275.28
2018-05-16T20:00:26.285Z,95282.16
2018-05-16T20:02:54.304Z,95294.55
2018-05-16T20:05:22.391Z,95308.02
2018-05-16T20:07:50.401Z,95296.30
2018-05-16T20:10:18.303Z,95298.30
2018-05-16T20:12:46.286Z,95302.74
2018-05-16T20:15:14.327Z,95305.23
2018-05-16T20:17:42.311Z,95302.61
2018-05-16T20:20:10.377Z,95290.09
2018-05-16T20:22:38.417Z,95283.47
2018-05-16T20:25:06.479Z,95275.16
2018-05-16T20:27:34.517Z,95278.70
2018-05-16T20:30:02.481Z,95280.95
2018-05-16T20:32:30.464Z,95289.81
2018-05-16T20:34:58.468Z,95296.41
2018-05-16T20:37:26.597Z,95301.72
2018-05-16T20:39:54.687Z,95297.30
2018-05-16T20:42:23.103Z,95302.40
2018-05-16T20:44:51.055Z,95312.49
2018-05-16T20:47:19.180Z,95312.86
2018-05-16T20:49:47.201Z,95319.91
2018-05-16T20:52:15.241Z,95317.09
2018-05-16T20:54:43.255Z,95306.17
2018-05-16T20:57:11.315Z,95311.24
2018-05-16T20:59:39.283Z,95303.23
2018-05-16T21:02:07.302Z,95311.03
2018-05-16T21:04:35.316Z,95301.73
2018-05-16T21:07:03.342Z,95285.35
2018-05-16T21:09:31.323Z,95286.27
2018-05-16T21:11:59.332Z,95284.67
2018-05-16T21:14:27.296Z,95289.03
2018-05-16T21:16:55.273Z,95287.22
2018-05-16T21:19:23.278Z,95282.30
2018-05-16T21:21:51.295Z,95281.06
2018-05-16T21:24:19.332Z,95288.73
2018-05-16T21:26:47.353Z,95290.83
2018-05-16T21:29:15.354Z,95281.53
2018-05-16T21:31:43.399Z,95281.05
2018-05-16T21:34:11.424Z,95274.68
2018-05-16T21:36:39.443Z,95272.42
2018-05-16T21:39:07.449Z,95273.55
2018-05-16T21:41:35.442Z,95220.94
2018-05-16T21:44:04.092Z,95268.51
2018-05-16T21:46:32.075Z,95269.29
2018-05-16T21:49:00.186Z,95273.89
2018-05-16T21:51:28.143Z,95264.02
2018-05-16T21:53:56.209Z,95276.53
2018-05-16T21:56:24.247Z,95270.45
2018-05-16T21:58:52.214Z,95267.83
2018-05-16T22:01:20.219Z,95252.16
2018-05-16T22:03:48.201Z,95262.67
2018-05-16T22:06:16.179Z,95256.77
2018-05-16T22:08:44.207Z,95261.42
2018-05-16T22:11:12.171Z,95265.14
2018-05-16T22:13:40.115Z,95263.14
2018-05-16T22:16:08.114Z,95246.73
2018-05-16T22:18:36.079Z,95250.64
2018-05-16T22:21:04.107Z,95259.79
2018-05-16T22:23:32.141Z,95266.72
2018-05-16T22:26:00.149Z,95261.72
2018-05-16T22:28:28.197Z,95248.62
2018-05-16T22:31:01.942Z,95247.88
2018-05-16T22:33:35.421Z,95256.01
2018-05-16T22:36:09.145Z,95248.17
2018-05-16T22:38:43.504Z,95250.16
2018-05-16T22:41:17.115Z,95241.23
2018-05-16T22:43:47.616Z,95245.69
2018-05-16T22:46:16.103Z,95243.84
2018-05-16T22:48:44.819Z,95237.28
2018-05-16T22:51:12.835Z,95233.17
2018-05-16T22:53:40.815Z,95235.77
2018-05-16T22:56:08.820Z,95231.59
2018-05-16T22:58:36.781Z,95235.59
2018-05-16T23:01:04.772Z,95234.12
2018-05-16T23:03:32.750Z,95229.83
2018-05-16T23:06:00.634Z,95228.59
2018-05-16T23:08:28.631Z,95222.70
2018-05-16T23:10:56.595Z,95227.25
2018-05-16T23:13:24.560Z,95216.51
2018-05-16T23:15:52.559Z,95216.38
2018-05-16T23:18:20.600Z,95220.41
2018-05-16T23:20:48.539Z,95216.85
2018-05-16T23:23:16.500Z,95227.48
2018-05-16T23:25:44.494Z,95221.95
2018-05-16T23:28:12.475Z,95223.80
2018-05-16T23:30:40.495Z,95239.47
2018-05-16T23:33:08.551Z,95231.81
2018-05-16T23:35:36.597Z,95226.77
2018-05-16T23:38:04.585Z,95215.30
2018-05-16T23:40:32.601Z,95212.72
2018-05-16T23:43:00.702Z,95219.50
2018-05-16T23:45:28.765Z,95227.34
2018-05-16T23:47:57.034Z,95220.09
2018-05-16T23:50:25.126Z,95215.08
2018-05-16T23:52:53.189Z,95215.59
2018-05-16T23:55:21.137Z,95220.41
2018-05-16T23:57:49.129Z,95221.09
